sensor_id;sensor_type;location;lat;lon;timestamp;P1;durP1;ratioP1;P2;durP2;ratioP2
21663;SDS011;10993;52.510;13.456;2022-09-17T00:02:00;3.65;;;1.20;;
21663;SDS011;10993;52.510;13.456;2022-09-17T00:07:03;4.30;;;1.50;;
21663;SDS011;10993;52.510;13.456;2022-09-17T00:12:03;2.85;;;1.33;;
21663;SDS011;10993;52.510;13.456;2022-09-17T00:17:04;2.50;;;1.27;;
21663;SDS011;10993;52.510;13.456;2022-09-17T00:22:06;4.95;;;1.13;;
21663;SDS011;10993;52.510;13.456;2022-09-17T00:27:06;3.28;;;1.33;;
21663;SDS011;10993;52.510;13.456;2022-09-17T00:32:06;4.50;;;1.42;;
21663;SDS011;10993;52.510;13.456;2022-09-17T00:37:08;2.85;;;1.30;;
21663;SDS011;10993;52.510;13.456;2022-09-17T00:42:09;6.05;;;1.42;;
21663;SDS011;10993;52.510;13.456;2022-09-17T00:47:15;3.08;;;1.23;;
21663;SDS011;10993;52.510;13.456;2022-09-17T00:52:23;4.13;;;1.33;;
21663;SDS011;10993;52.510;13.456;2022-09-17T00:57:27;2.20;;;1.00;;
21663;SDS011;10993;52.510;13.456;2022-09-17T01:02:28;3.22;;;1.42;;
21663;SDS011;10993;52.510;13.456;2022-09-17T01:07:34;1.77;;;1.10;;
21663;SDS011;10993;52.510;13.456;2022-09-17T01:12:48;5.18;;;1.60;;
21663;SDS011;10993;52.510;13.456;2022-09-17T01:18:04;2.08;;;1.02;;
21663;SDS011;10993;52.510;13.456;2022-09-17T01:23:21;4.18;;;1.60;;
21663;SDS011;10993;52.510;13.456;2022-09-17T01:28:59;3.88;;;1.67;;
21663;SDS011;10993;52.510;13.456;2022-09-17T01:34:16;2.65;;;1.00;;
21663;SDS011;10993;52.510;13.456;2022-09-17T01:39:27;5.35;;;1.40;;
21663;SDS011;10993;52.510;13.456;2022-09-17T01:44:34;5.53;;;1.38;;
21663;SDS011;10993;52.510;13.456;2022-09-17T01:49:40;3.03;;;1.20;;
21663;SDS011;10993;52.510;13.456;2022-09-17T01:54:43;2.90;;;1.10;;
21663;SDS011;10993;52.510;13.456;2022-09-17T01:59:49;7.65;;;1.52;;
21663;SDS011;10993;52.510;13.456;2022-09-17T02:04:56;3.42;;;1.30;;
21663;SDS011;10993;52.510;13.456;2022-09-17T02:10:03;3.28;;;1.13;;
21663;SDS011;10993;52.510;13.456;2022-09-17T02:15:10;3.25;;;1.00;;
21663;SDS011;10993;52.510;13.456;2022-09-17T02:20:18;3.17;;;1.33;;
21663;SDS011;10993;52.510;13.456;2022-09-17T02:25:24;3.85;;;1.20;;
21663;SDS011;10993;52.510;13.456;2022-09-17T02:30:30;4.30;;;2.22;;
21663;SDS011;10993;52.510;13.456;2022-09-17T02:35:32;2.35;;;1.30;;
21663;SDS011;10993;52.510;13.456;2022-09-17T02:40:34;2.85;;;1.45;;
21663;SDS011;10993;52.510;13.456;2022-09-17T02:45:43;4.15;;;1.35;;
21663;SDS011;10993;52.510;13.456;2022-09-17T02:51:01;2.30;;;1.10;;
21663;SDS011;10993;52.510;13.456;2022-09-17T02:56:12;5.10;;;1.42;;
21663;SDS011;10993;52.510;13.456;2022-09-17T03:01:19;3.00;;;1.25;;
21663;SDS011;10993;52.510;13.456;2022-09-17T03:06:25;2.78;;;1.27;;
21663;SDS011;10993;52.510;13.456;2022-09-17T03:11:26;3.88;;;1.30;;
21663;SDS011;10993;52.510;13.456;2022-09-17T03:16:26;4.47;;;1.17;;
21663;SDS011;10993;52.510;13.456;2022-09-17T03:21:28;3.97;;;1.00;;
21663;SDS011;10993;52.510;13.456;2022-09-17T03:26:28;4.43;;;1.30;;
21663;SDS011;10993;52.510;13.456;2022-09-17T03:31:29;1.35;;;0.80;;
21663;SDS011;10993;52.510;13.456;2022-09-17T03:36:30;2.20;;;1.00;;
21663;SDS011;10993;52.510;13.456;2022-09-17T03:41:31;3.60;;;1.23;;
21663;SDS011;10993;52.510;13.456;2022-09-17T03:46:31;6.32;;;1.90;;
21663;SDS011;10993;52.510;13.456;2022-09-17T03:51:33;5.32;;;1.10;;
21663;SDS011;10993;52.510;13.456;2022-09-17T03:56:33;3.58;;;0.90;;
21663;SDS011;10993;52.510;13.456;2022-09-17T04:01:34;2.55;;;1.05;;
21663;SDS011;10993;52.510;13.456;2022-09-17T04:06:36;3.40;;;1.42;;
21663;SDS011;10993;52.510;13.456;2022-09-17T04:11:36;3.38;;;1.00;;
21663;SDS011;10993;52.510;13.456;2022-09-17T04:16:37;3.63;;;1.30;;
21663;SDS011;10993;52.510;13.456;2022-09-17T04:21:38;2.55;;;1.02;;
21663;SDS011;10993;52.510;13.456;2022-09-17T04:26:39;3.17;;;1.10;;
21663;SDS011;10993;52.510;13.456;2022-09-17T04:31:39;6.25;;;1.10;;
21663;SDS011;10993;52.510;13.456;2022-09-17T04:36:41;3.05;;;1.00;;
21663;SDS011;10993;52.510;13.456;2022-09-17T04:41:41;3.13;;;1.00;;
21663;SDS011;10993;52.510;13.456;2022-09-17T04:46:42;3.03;;;1.27;;
21663;SDS011;10993;52.510;13.456;2022-09-17T04:51:43;3.92;;;0.80;;
21663;SDS011;10993;52.510;13.456;2022-09-17T04:56:44;4.15;;;1.00;;
21663;SDS011;10993;52.510;13.456;2022-09-17T05:01:44;4.15;;;0.90;;
21663;SDS011;10993;52.510;13.456;2022-09-17T05:06:46;2.40;;;0.90;;
21663;SDS011;10993;52.510;13.456;2022-09-17T05:11:46;2.30;;;0.65;;
21663;SDS011;10993;52.510;13.456;2022-09-17T05:16:47;2.13;;;0.63;;
21663;SDS011;10993;52.510;13.456;2022-09-17T05:21:48;3.22;;;0.77;;
21663;SDS011;10993;52.510;13.456;2022-09-17T05:26:49;6.32;;;0.98;;
21663;SDS011;10993;52.510;13.456;2022-09-17T05:31:49;1.90;;;0.90;;
21663;SDS011;10993;52.510;13.456;2022-09-17T05:36:51;4.65;;;0.90;;
21663;SDS011;10993;52.510;13.456;2022-09-17T05:41:51;5.50;;;1.10;;
21663;SDS011;10993;52.510;13.456;2022-09-17T05:46:52;5.00;;;1.05;;
21663;SDS011;10993;52.510;13.456;2022-09-17T05:51:54;2.13;;;0.80;;
21663;SDS011;10993;52.510;13.456;2022-09-17T05:56:54;6.00;;;1.70;;
21663;SDS011;10993;52.510;13.456;2022-09-17T06:01:55;3.75;;;1.25;;
21663;SDS011;10993;52.510;13.456;2022-09-17T06:06:56;2.03;;;0.80;;
21663;SDS011;10993;52.510;13.456;2022-09-17T06:11:57;3.33;;;0.95;;
21663;SDS011;10993;52.510;13.456;2022-09-17T06:16:57;4.90;;;1.30;;
21663;SDS011;10993;52.510;13.456;2022-09-17T06:21:59;4.78;;;1.17;;
21663;SDS011;10993;52.510;13.456;2022-09-17T06:27:00;3.88;;;0.98;;
21663;SDS011;10993;52.510;13.456;2022-09-17T06:32:00;4.60;;;1.70;;
21663;SDS011;10993;52.510;13.456;2022-09-17T06:37:03;9.27;;;1.35;;
21663;SDS011;10993;52.510;13.456;2022-09-17T06:42:04;5.63;;;1.40;;
21663;SDS011;10993;52.510;13.456;2022-09-17T06:47:05;6.70;;;1.58;;
21663;SDS011;10993;52.510;13.456;2022-09-17T06:52:08;12.70;;;1.60;;
21663;SDS011;10993;52.510;13.456;2022-09-17T06:57:08;4.45;;;1.10;;
21663;SDS011;10993;52.510;13.456;2022-09-17T07:02:08;3.78;;;1.25;;
21663;SDS011;10993;52.510;13.456;2022-09-17T07:07:10;7.57;;;1.40;;
21663;SDS011;10993;52.510;13.456;2022-09-17T07:12:10;3.03;;;1.20;;
21663;SDS011;10993;52.510;13.456;2022-09-17T07:17:11;4.75;;;1.20;;
21663;SDS011;10993;52.510;13.456;2022-09-17T07:22:12;4.00;;;1.25;;
21663;SDS011;10993;52.510;13.456;2022-09-17T07:27:13;4.88;;;1.95;;
21663;SDS011;10993;52.510;13.456;2022-09-17T07:32:13;7.75;;;2.30;;
21663;SDS011;10993;52.510;13.456;2022-09-17T07:37:15;4.82;;;1.50;;
21663;SDS011;10993;52.510;13.456;2022-09-17T07:42:16;6.22;;;1.98;;
21663;SDS011;10993;52.510;13.456;2022-09-17T07:47:16;3.83;;;1.02;;
21663;SDS011;10993;52.510;13.456;2022-09-17T07:52:18;6.88;;;1.52;;
21663;SDS011;10993;52.510;13.456;2022-09-17T07:57:18;8.15;;;1.10;;
21663;SDS011;10993;52.510;13.456;2022-09-17T08:02:19;7.00;;;1.67;;
21663;SDS011;10993;52.510;13.456;2022-09-17T08:07:21;4.75;;;0.90;;
21663;SDS011;10993;52.510;13.456;2022-09-17T08:12:22;4.88;;;1.30;;
21663;SDS011;10993;52.510;13.456;2022-09-17T08:17:22;3.60;;;1.02;;
21663;SDS011;10993;52.510;13.456;2022-09-17T08:22:24;4.30;;;0.87;;
21663;SDS011;10993;52.510;13.456;2022-09-17T08:27:24;7.68;;;1.50;;
21663;SDS011;10993;52.510;13.456;2022-09-17T08:32:24;7.43;;;1.33;;
21663;SDS011;10993;52.510;13.456;2022-09-17T08:37:26;5.68;;;1.00;;
21663;SDS011;10993;52.510;13.456;2022-09-17T08:42:29;5.25;;;1.10;;
21663;SDS011;10993;52.510;13.456;2022-09-17T08:47:36;7.28;;;1.25;;
21663;SDS011;10993;52.510;13.456;2022-09-17T09:04:09;3.22;;;0.95;;
21663;SDS011;10993;52.510;13.456;2022-09-17T09:09:21;3.33;;;1.10;;
21663;SDS011;10993;52.510;13.456;2022-09-17T09:14:28;4.68;;;1.05;;
21663;SDS011;10993;52.510;13.456;2022-09-17T09:19:39;4.95;;;1.15;;
21663;SDS011;10993;52.510;13.456;2022-09-17T09:24:44;4.05;;;1.13;;
21663;SDS011;10993;52.510;13.456;2022-09-17T09:29:58;2.78;;;0.70;;
21663;SDS011;10993;52.510;13.456;2022-09-17T09:35:10;4.80;;;0.90;;
21663;SDS011;10993;52.510;13.456;2022-09-17T09:40:22;2.92;;;0.68;;
21663;SDS011;10993;52.510;13.456;2022-09-17T09:45:35;4.53;;;1.48;;
21663;SDS011;10993;52.510;13.456;2022-09-17T09:50:46;3.40;;;0.70;;
21663;SDS011;10993;52.510;13.456;2022-09-17T09:56:10;1.60;;;0.65;;
21663;SDS011;10993;52.510;13.456;2022-09-17T10:01:26;3.60;;;1.08;;
21663;SDS011;10993;52.510;13.456;2022-09-17T10:06:28;3.70;;;1.05;;
21663;SDS011;10993;52.510;13.456;2022-09-17T10:11:31;4.65;;;0.90;;
21663;SDS011;10993;52.510;13.456;2022-09-17T10:16:32;5.10;;;0.90;;
21663;SDS011;10993;52.510;13.456;2022-09-17T10:21:35;5.85;;;0.90;;
21663;SDS011;10993;52.510;13.456;2022-09-17T10:26:39;3.15;;;0.60;;
21663;SDS011;10993;52.510;13.456;2022-09-17T10:31:46;3.63;;;0.98;;
21663;SDS011;10993;52.510;13.456;2022-09-17T10:36:48;3.20;;;0.60;;
21663;SDS011;10993;52.510;13.456;2022-09-17T10:41:54;1.40;;;0.52;;
21663;SDS011;10993;52.510;13.456;2022-09-17T10:47:00;1.90;;;0.57;;
21663;SDS011;10993;52.510;13.456;2022-09-17T10:52:05;3.67;;;0.63;;
21663;SDS011;10993;52.510;13.456;2022-09-17T10:57:11;4.00;;;0.75;;
21663;SDS011;10993;52.510;13.456;2022-09-17T11:02:25;4.55;;;0.80;;
21663;SDS011;10993;52.510;13.456;2022-09-17T11:07:42;6.00;;;0.75;;
21663;SDS011;10993;52.510;13.456;2022-09-17T11:18:20;7.63;;;2.28;;
21663;SDS011;10993;52.510;13.456;2022-09-17T11:23:37;4.47;;;0.82;;
21663;SDS011;10993;52.510;13.456;2022-09-17T11:28:54;6.55;;;1.90;;
21663;SDS011;10993;52.510;13.456;2022-09-17T11:34:12;3.35;;;0.70;;
21663;SDS011;10993;52.510;13.456;2022-09-17T11:39:21;2.55;;;0.52;;
21663;SDS011;10993;52.510;13.456;2022-09-17T11:44:28;4.10;;;0.98;;
21663;SDS011;10993;52.510;13.456;2022-09-17T11:49:32;2.22;;;0.63;;
21663;SDS011;10993;52.510;13.456;2022-09-17T11:54:37;2.42;;;0.57;;
21663;SDS011;10993;52.510;13.456;2022-09-17T11:59:45;2.72;;;0.75;;
21663;SDS011;10993;52.510;13.456;2022-09-17T12:04:52;2.88;;;0.65;;
21663;SDS011;10993;52.510;13.456;2022-09-17T12:09:59;2.83;;;0.77;;
21663;SDS011;10993;52.510;13.456;2022-09-17T12:15:12;2.60;;;0.55;;
21663;SDS011;10993;52.510;13.456;2022-09-17T12:20:18;2.38;;;0.40;;
21663;SDS011;10993;52.510;13.456;2022-09-17T12:25:26;1.42;;;0.47;;
21663;SDS011;10993;52.510;13.456;2022-09-17T12:30:35;1.15;;;0.43;;
21663;SDS011;10993;52.510;13.456;2022-09-17T12:35:48;2.45;;;0.60;;
21663;SDS011;10993;52.510;13.456;2022-09-17T12:40:59;2.20;;;0.50;;
21663;SDS011;10993;52.510;13.456;2022-09-17T12:46:12;2.15;;;0.60;;
21663;SDS011;10993;52.510;13.456;2022-09-17T12:51:27;1.52;;;0.57;;
21663;SDS011;10993;52.510;13.456;2022-09-17T12:56:45;3.13;;;0.75;;
21663;SDS011;10993;52.510;13.456;2022-09-17T13:01:57;1.90;;;0.50;;
21663;SDS011;10993;52.510;13.456;2022-09-17T13:07:16;3.05;;;0.60;;
21663;SDS011;10993;52.510;13.456;2022-09-17T13:12:31;5.15;;;1.08;;
21663;SDS011;10993;52.510;13.456;2022-09-17T13:17:41;1.98;;;0.68;;
21663;SDS011;10993;52.510;13.456;2022-09-17T13:22:46;1.25;;;0.70;;
21663;SDS011;10993;52.510;13.456;2022-09-17T13:27:49;1.75;;;0.60;;
21663;SDS011;10993;52.510;13.456;2022-09-17T13:33:04;0.80;;;0.38;;
21663;SDS011;10993;52.510;13.456;2022-09-17T13:38:04;3.25;;;0.88;;
21663;SDS011;10993;52.510;13.456;2022-09-17T13:43:06;1.80;;;0.50;;
21663;SDS011;10993;52.510;13.456;2022-09-17T13:48:10;1.70;;;0.50;;
21663;SDS011;10993;52.510;13.456;2022-09-17T13:53:19;1.33;;;0.60;;
21663;SDS011;10993;52.510;13.456;2022-09-17T13:58:26;0.95;;;0.38;;
21663;SDS011;10993;52.510;13.456;2022-09-17T14:08:52;3.35;;;0.80;;
21663;SDS011;10993;52.510;13.456;2022-09-17T14:13:57;3.53;;;;;
21663;SDS011;10993;52.510;13.456;2022-09-17T14:19:32;4.38;;;0.70;;
21663;SDS011;10993;52.510;13.456;2022-09-17T14:24:44;3.10;;;0.40;;
21663;SDS011;10993;52.510;13.456;2022-09-17T14:30:04;5.38;;;0.70;;
21663;SDS011;10993;52.510;13.456;2022-09-17T14:35:16;3.80;;;0.93;;
21663;SDS011;10993;52.510;13.456;2022-09-17T14:40:21;2.28;;;0.73;;
21663;SDS011;10993;52.510;13.456;2022-09-17T14:45:23;1.45;;;0.52;;
21663;SDS011;10993;52.510;13.456;2022-09-17T14:50:28;1.92;;;0.40;;
21663;SDS011;10993;52.510;13.456;2022-09-17T14:55:30;3.38;;;0.50;;
21663;SDS011;10993;52.510;13.456;2022-09-17T15:00:32;2.30;;;0.60;;
21663;SDS011;10993;52.510;13.456;2022-09-17T15:05:35;3.45;;;0.70;;
21663;SDS011;10993;52.510;13.456;2022-09-17T15:10:44;2.58;;;0.38;;
21663;SDS011;10993;52.510;13.456;2022-09-17T15:15:51;3.05;;;0.50;;
21663;SDS011;10993;52.510;13.456;2022-09-17T15:20:56;3.03;;;0.80;;
21663;SDS011;10993;52.510;13.456;2022-09-17T15:25:59;2.08;;;0.70;;
21663;SDS011;10993;52.510;13.456;2022-09-17T15:31:02;1.92;;;0.40;;
21663;SDS011;10993;52.510;13.456;2022-09-17T15:36:13;2.15;;;0.40;;
21663;SDS011;10993;52.510;13.456;2022-09-17T15:41:21;2.42;;;0.32;;
21663;SDS011;10993;52.510;13.456;2022-09-17T15:46:26;1.65;;;0.38;;
21663;SDS011;10993;52.510;13.456;2022-09-17T15:51:30;4.90;;;0.80;;
21663;SDS011;10993;52.510;13.456;2022-09-17T15:56:34;2.22;;;0.88;;
21663;SDS011;10993;52.510;13.456;2022-09-17T16:06:54;2.05;;;0.60;;
21663;SDS011;10993;52.510;13.456;2022-09-17T16:11:57;1.00;;;0.30;;
21663;SDS011;10993;52.510;13.456;2022-09-17T16:16:57;1.35;;;0.55;;
21663;SDS011;10993;52.510;13.456;2022-09-17T16:21:59;1.70;;;0.50;;
21663;SDS011;10993;52.510;13.456;2022-09-17T16:27:00;2.33;;;1.02;;
21663;SDS011;10993;52.510;13.456;2022-09-17T16:32:00;2.85;;;0.50;;
21663;SDS011;10993;52.510;13.456;2022-09-17T16:37:02;1.20;;;0.43;;
21663;SDS011;10993;52.510;13.456;2022-09-17T16:42:02;4.50;;;0.50;;
21663;SDS011;10993;52.510;13.456;2022-09-17T16:47:03;3.88;;;1.67;;
21663;SDS011;10993;52.510;13.456;2022-09-17T16:52:05;2.47;;;0.60;;
21663;SDS011;10993;52.510;13.456;2022-09-17T16:57:05;2.25;;;0.52;;
21663;SDS011;10993;52.510;13.456;2022-09-17T17:02:06;0.60;;;0.30;;
21663;SDS011;10993;52.510;13.456;2022-09-17T17:07:07;1.95;;;0.40;;
21663;SDS011;10993;52.510;13.456;2022-09-17T17:12:08;1.27;;;0.60;;
21663;SDS011;10993;52.510;13.456;2022-09-17T17:17:08;2.72;;;0.60;;
21663;SDS011;10993;52.510;13.456;2022-09-17T17:22:10;2.15;;;0.77;;
21663;SDS011;10993;52.510;13.456;2022-09-17T17:27:10;3.42;;;0.60;;
21663;SDS011;10993;52.510;13.456;2022-09-17T17:32:13;1.90;;;0.40;;
21663;SDS011;10993;52.510;13.456;2022-09-17T17:37:14;1.70;;;0.70;;
21663;SDS011;10993;52.510;13.456;2022-09-17T17:42:15;3.38;;;1.10;;
21663;SDS011;10993;52.510;13.456;2022-09-17T17:47:15;2.30;;;0.70;;
21663;SDS011;10993;52.510;13.456;2022-09-17T17:52:17;1.73;;;0.70;;
21663;SDS011;10993;52.510;13.456;2022-09-17T17:57:17;2.63;;;0.57;;
21663;SDS011;10993;52.510;13.456;2022-09-17T18:02:18;1.92;;;0.60;;
21663;SDS011;10993;52.510;13.456;2022-09-17T18:07:19;4.10;;;0.90;;
21663;SDS011;10993;52.510;13.456;2022-09-17T18:12:20;2.30;;;0.93;;
21663;SDS011;10993;52.510;13.456;2022-09-17T18:17:20;2.58;;;0.95;;
21663;SDS011;10993;52.510;13.456;2022-09-17T18:22:22;3.13;;;0.57;;
21663;SDS011;10993;52.510;13.456;2022-09-17T18:27:22;2.40;;;0.90;;
21663;SDS011;10993;52.510;13.456;2022-09-17T18:32:23;2.58;;;0.90;;
21663;SDS011;10993;52.510;13.456;2022-09-17T18:37:26;3.08;;;0.57;;
21663;SDS011;10993;52.510;13.456;2022-09-17T18:42:27;3.88;;;0.60;;
21663;SDS011;10993;52.510;13.456;2022-09-17T18:47:27;3.10;;;0.82;;
21663;SDS011;10993;52.510;13.456;2022-09-17T18:52:29;3.72;;;1.27;;
21663;SDS011;10993;52.510;13.456;2022-09-17T18:57:30;5.10;;;1.90;;
21663;SDS011;10993;52.510;13.456;2022-09-17T19:02:31;4.43;;;1.30;;
21663;SDS011;10993;52.510;13.456;2022-09-17T19:07:33;3.03;;;1.17;;
21663;SDS011;10993;52.510;13.456;2022-09-17T19:12:33;3.50;;;1.20;;
21663;SDS011;10993;52.510;13.456;2022-09-17T19:17:34;2.92;;;0.98;;
21663;SDS011;10993;52.510;13.456;2022-09-17T19:22:36;3.47;;;1.23;;
21663;SDS011;10993;52.510;13.456;2022-09-17T19:27:36;5.53;;;1.35;;
21663;SDS011;10993;52.510;13.456;2022-09-17T19:32:36;3.88;;;1.52;;
21663;SDS011;10993;52.510;13.456;2022-09-17T19:37:38;3.47;;;1.50;;
21663;SDS011;10993;52.510;13.456;2022-09-17T19:42:39;2.60;;;1.02;;
21663;SDS011;10993;52.510;13.456;2022-09-17T19:47:39;3.25;;;1.73;;
21663;SDS011;10993;52.510;13.456;2022-09-17T19:52:41;1.60;;;0.73;;
21663;SDS011;10993;52.510;13.456;2022-09-17T19:57:41;3.42;;;1.15;;
21663;SDS011;10993;52.510;13.456;2022-09-17T20:02:41;3.67;;;1.63;;
21663;SDS011;10993;52.510;13.456;2022-09-17T20:07:43;3.47;;;1.20;;
21663;SDS011;10993;52.510;13.456;2022-09-17T20:12:43;3.90;;;1.50;;
21663;SDS011;10993;52.510;13.456;2022-09-17T20:17:44;2.65;;;1.13;;
21663;SDS011;10993;52.510;13.456;2022-09-17T20:22:46;3.03;;;1.40;;
21663;SDS011;10993;52.510;13.456;2022-09-17T20:27:47;3.88;;;1.98;;
21663;SDS011;10993;52.510;13.456;2022-09-17T20:32:47;3.80;;;1.55;;
21663;SDS011;10993;52.510;13.456;2022-09-17T20:37:49;3.50;;;1.30;;
21663;SDS011;10993;52.510;13.456;2022-09-17T20:42:50;3.53;;;1.40;;
21663;SDS011;10993;52.510;13.456;2022-09-17T20:47:50;4.65;;;1.20;;
21663;SDS011;10993;52.510;13.456;2022-09-17T20:52:52;4.47;;;1.40;;
21663;SDS011;10993;52.510;13.456;2022-09-17T20:57:52;2.25;;;1.10;;
21663;SDS011;10993;52.510;13.456;2022-09-17T21:02:53;2.72;;;1.35;;
21663;SDS011;10993;52.510;13.456;2022-09-17T21:07:56;5.47;;;1.63;;
21663;SDS011;10993;52.510;13.456;2022-09-17T21:12:57;5.47;;;2.05;;
21663;SDS011;10993;52.510;13.456;2022-09-17T21:17:57;4.28;;;1.50;;
21663;SDS011;10993;52.510;13.456;2022-09-17T21:22:59;5.65;;;1.77;;
21663;SDS011;10993;52.510;13.456;2022-09-17T21:28:00;3.78;;;1.70;;
21663;SDS011;10993;52.510;13.456;2022-09-17T21:33:00;2.80;;;1.55;;
21663;SDS011;10993;52.510;13.456;2022-09-17T21:38:02;4.53;;;1.88;;
21663;SDS011;10993;52.510;13.456;2022-09-17T21:43:03;4.68;;;2.10;;
21663;SDS011;10993;52.510;13.456;2022-09-17T21:48:05;3.50;;;1.73;;
21663;SDS011;10993;52.510;13.456;2022-09-17T21:53:07;4.22;;;2.10;;
21663;SDS011;10993;52.510;13.456;2022-09-17T21:58:07;6.28;;;3.22;;
21663;SDS011;10993;52.510;13.456;2022-09-17T22:03:08;5.97;;;1.70;;
21663;SDS011;10993;52.510;13.456;2022-09-17T22:08:10;4.50;;;2.10;;
21663;SDS011;10993;52.510;13.456;2022-09-17T22:13:11;3.60;;;1.67;;
21663;SDS011;10993;52.510;13.456;2022-09-17T22:18:11;5.07;;;1.98;;
21663;SDS011;10993;52.510;13.456;2022-09-17T22:23:13;4.07;;;1.40;;
21663;SDS011;10993;52.510;13.456;2022-09-17T22:28:13;2.65;;;1.30;;
21663;SDS011;10993;52.510;13.456;2022-09-17T22:33:15;3.88;;;1.50;;
21663;SDS011;10993;52.510;13.456;2022-09-17T22:38:16;3.25;;;1.10;;
21663;SDS011;10993;52.510;13.456;2022-09-17T22:43:17;6.15;;;2.10;;
21663;SDS011;10993;52.510;13.456;2022-09-17T22:48:17;5.18;;;1.63;;
21663;SDS011;10993;52.510;13.456;2022-09-17T22:53:19;4.22;;;1.92;;
21663;SDS011;10993;52.510;13.456;2022-09-17T22:58:19;9.13;;;3.33;;
21663;SDS011;10993;52.510;13.456;2022-09-17T23:03:24;4.65;;;2.47;;
21663;SDS011;10993;52.510;13.456;2022-09-17T23:08:26;4.53;;;2.20;;
21663;SDS011;10993;52.510;13.456;2022-09-17T23:13:28;3.47;;;1.85;;
21663;SDS011;10993;52.510;13.456;2022-09-17T23:18:29;4.97;;;2.25;;
21663;SDS011;10993;52.510;13.456;2022-09-17T23:23:31;3.53;;;1.50;;
21663;SDS011;10993;52.510;13.456;2022-09-17T23:28:33;4.35;;;1.98;;
21663;SDS011;10993;52.510;13.456;2022-09-17T23:33:33;2.42;;;1.33;;
21663;SDS011;10993;52.510;13.456;2022-09-17T23:38:36;4.32;;;2.13;;
21663;SDS011;10993;52.510;13.456;2022-09-17T23:43:36;5.43;;;1.25;;
21663;SDS011;10993;52.510;13.456;2022-09-17T23:48:37;3.00;;;1.10;;
21663;SDS011;10993;52.510;13.456;2022-09-17T23:53:39;3.20;;;1.48;;
21663;SDS011;10993;52.510;13.456;2022-09-17T23:58:39;3.60;;;1.50;;
